sensor_id;sensor_type;location;lat;lon;timestamp;pressure;altitude;pressure_sealevel;temperature;humidity
46638;BME280;32365;46.938;7.390;2023-03-18T07:37:53;95041.53;;;12.72;52.87
46638;BME280;32365;46.938;7.390;2023-03-18T07:40:21;95037.19;;;12.18;54.08
46638;BME280;32365;46.938;7.390;2023-03-18T07:42:47;95041.66;;;12.22;54.32
46638;BME280;32365;46.938;7.390;2023-03-18T07:45:16;95043.31;;;13.09;51.16
46638;BME280;32365;46.938;7.390;2023-03-18T07:47:42;95041.75;;;13.51;49.29
46638;BME280;32365;46.938;7.390;2023-03-18T07:50:10;95046.31;;;13.87;48.24
46638;BME280;32365;46.938;7.390;2023-03-18T07:52:37;95040.13;;;14.24;46.66
46638;BME280;32365;46.938;7.390;2023-03-18T07:55:06;95043.34;;;15.59;44.65
46638;BME280;32365;46.938;7.390;2023-03-18T07:57:33;95041.53;;;16.14;42.59
46638;BME280;32365;46.938;7.390;2023-03-18T08:00:01;95037.38;;;17.12;39.51
46638;BME280;32365;46.938;7.390;2023-03-18T08:02:29;95048.91;;;16.02;42.94
46638;BME280;32365;46.938;7.390;2023-03-18T08:04:56;95047.47;;;16.25;42.29
46638;BME280;32365;46.938;7.390;2023-03-18T08:07:23;95048.72;;;15.02;42.02
46638;BME280;32365;46.938;7.390;2023-03-18T08:09:49;95058.41;;;14.81;47.02
46638;BME280;32365;46.938;7.390;2023-03-18T08:12:17;95050.16;;;15.54;44.95
46638;BME280;32365;46.938;7.390;2023-03-18T08:14:44;95053.47;;;15.76;43.81
46638;BME280;32365;46.938;7.390;2023-03-18T08:17:12;95051.03;;;15.14;43.00
46638;BME280;32365;46.938;7.390;2023-03-18T08:19:39;95051.22;;;16.09;42.14
46638;BME280;32365;46.938;7.390;2023-03-18T08:22:05;95047.84;;;18.75;33.40
46638;BME280;32365;46.938;7.390;2023-03-18T08:24:32;95053.25;;;17.45;37.24
46638;BME280;32365;46.938;7.390;2023-03-18T08:26:59;95049.69;;;18.75;34.42
46638;BME280;32365;46.938;7.390;2023-03-18T08:29:27;95042.34;;;18.91;34.96
46638;BME280;32365;46.938;7.390;2023-03-18T08:31:53;95039.56;;;19.01;34.22
46638;BME280;32365;46.938;7.390;2023-03-18T08:34:21;95048.91;;;19.63;32.11
46638;BME280;32365;46.938;7.390;2023-03-18T08:36:48;95048.63;;;19.37;32.53
46638;BME280;32365;46.938;7.390;2023-03-18T08:39:14;95036.41;;;18.85;34.30
46638;BME280;32365;46.938;7.390;2023-03-18T08:41:41;95033.38;;;18.45;34.21
46638;BME280;32365;46.938;7.390;2023-03-18T08:44:08;95037.31;;;18.09;33.80
46638;BME280;32365;46.938;7.390;2023-03-18T08:46:37;95031.22;;;17.70;37.00
46638;BME280;32365;46.938;7.390;2023-03-18T08:49:04;95031.03;;;18.76;35.76
46638;BME280;32365;46.938;7.390;2023-03-18T08:51:30;95036.94;;;19.01;33.63
46638;BME280;32365;46.938;7.390;2023-03-18T08:53:57;95034.75;;;20.60;32.26
46638;BME280;32365;46.938;7.390;2023-03-18T08:56:25;95033.94;;;21.46;30.60
46638;BME280;32365;46.938;7.390;2023-03-18T08:58:52;95031.06;;;21.25;30.91
46638;BME280;32365;46.938;7.390;2023-03-18T09:01:19;95023.66;;;21.76;29.75
46638;BME280;32365;46.938;7.390;2023-03-18T09:03:47;95024.69;;;23.96;25.59
46638;BME280;32365;46.938;7.390;2023-03-18T09:06:15;95015.09;;;23.32;25.83
46638;BME280;32365;46.938;7.390;2023-03-18T09:08:42;95022.44;;;22.26;26.51
46638;BME280;32365;46.938;7.390;2023-03-18T09:11:09;95020.88;;;20.69;29.85
46638;BME280;32365;46.938;7.390;2023-03-18T09:13:36;95011.69;;;20.57;29.38
46638;BME280;32365;46.938;7.390;2023-03-18T09:16:03;95012.34;;;21.75;27.18
46638;BME280;32365;46.938;7.390;2023-03-18T09:18:29;95013.56;;;20.88;30.07
46638;BME280;32365;46.938;7.390;2023-03-18T09:20:58;95004.72;;;21.65;27.78
46638;BME280;32365;46.938;7.390;2023-03-18T09:23:24;95009.38;;;21.59;27.55
46638;BME280;32365;46.938;7.390;2023-03-18T09:25:52;95002.13;;;22.09;27.45
46638;BME280;32365;46.938;7.390;2023-03-18T09:28:19;95005.09;;;21.98;27.81
46638;BME280;32365;46.938;7.390;2023-03-18T09:30:45;95001.91;;;21.03;29.24
46638;BME280;32365;46.938;7.390;2023-03-18T09:33:12;95008.59;;;21.67;27.54
46638;BME280;32365;46.938;7.390;2023-03-18T09:35:40;95008.03;;;23.06;25.60
46638;BME280;32365;46.938;7.390;2023-03-18T09:38:12;94992.31;;;22.71;24.79
46638;BME280;32365;46.938;7.390;2023-03-18T09:40:47;94996.38;;;22.07;25.60
46638;BME280;32365;46.938;7.390;2023-03-18T09:43:29;94986.84;;;22.85;25.78
46638;BME280;32365;46.938;7.390;2023-03-18T09:46:06;94986.44;;;22.39;26.57
46638;BME280;32365;46.938;7.390;2023-03-18T09:49:09;94986.97;;;23.87;22.84
46638;BME280;32365;46.938;7.390;2023-03-18T09:51:48;94986.38;;;22.74;24.71
46638;BME280;32365;46.938;7.390;2023-03-18T09:54:26;94982.59;;;22.45;25.19
46638;BME280;32365;46.938;7.390;2023-03-18T09:56:54;94982.25;;;24.14;23.69
46638;BME280;32365;46.938;7.390;2023-03-18T09:59:23;94984.16;;;25.55;23.45
46638;BME280;32365;46.938;7.390;2023-03-18T10:01:53;94982.94;;;25.77;23.20
46638;BME280;32365;46.938;7.390;2023-03-18T10:04:23;94973.81;;;25.13;23.71
46638;BME280;32365;46.938;7.390;2023-03-18T10:06:53;94969.75;;;24.23;26.43
46638;BME280;32365;46.938;7.390;2023-03-18T10:09:26;94980.50;;;24.18;26.17
46638;BME280;32365;46.938;7.390;2023-03-18T10:12:00;94968.41;;;25.87;23.51
46638;BME280;32365;46.938;7.390;2023-03-18T10:14:39;94967.38;;;21.05;30.87
46638;BME280;32365;46.938;7.390;2023-03-18T10:17:15;94970.25;;;23.23;27.57
46638;BME280;32365;46.938;7.390;2023-03-18T10:19:45;94961.00;;;25.93;22.90
46638;BME280;32365;46.938;7.390;2023-03-18T10:22:32;94967.53;;;24.25;24.94
46638;BME280;32365;46.938;7.390;2023-03-18T10:25:08;94964.97;;;25.33;22.28
46638;BME280;32365;46.938;7.390;2023-03-18T10:27:47;94963.56;;;25.89;23.14
46638;BME280;32365;46.938;7.390;2023-03-18T10:30:30;94956.66;;;27.73;19.37
46638;BME280;32365;46.938;7.390;2023-03-18T10:33:05;94962.75;;;26.01;20.34
46638;BME280;32365;46.938;7.390;2023-03-18T10:35:37;94955.56;;;26.02;20.74
46638;BME280;32365;46.938;7.390;2023-03-18T10:38:16;94955.56;;;26.02;23.29
46638;BME280;32365;46.938;7.390;2023-03-18T10:40:46;94954.47;;;26.31;22.46
46638;BME280;32365;46.938;7.390;2023-03-18T10:43:16;94947.25;;;25.62;23.60
46638;BME280;32365;46.938;7.390;2023-03-18T10:45:44;94949.56;;;24.31;25.68
46638;BME280;32365;46.938;7.390;2023-03-18T10:48:14;94947.03;;;24.22;25.22
46638;BME280;32365;46.938;7.390;2023-03-18T10:50:48;94939.94;;;25.06;24.37
46638;BME280;32365;46.938;7.390;2023-03-18T10:53:21;94938.78;;;25.44;23.50
46638;BME280;32365;46.938;7.390;2023-03-18T10:55:56;94939.13;;;26.24;22.54
46638;BME280;32365;46.938;7.390;2023-03-18T10:58:26;94940.97;;;27.48;20.15
46638;BME280;32365;46.938;7.390;2023-03-18T11:00:53;94935.38;;;26.41;21.45
46638;BME280;32365;46.938;7.390;2023-03-18T11:03:23;94944.00;;;25.81;22.41
46638;BME280;32365;46.938;7.390;2023-03-18T11:05:53;94945.66;;;24.83;24.56
46638;BME280;32365;46.938;7.390;2023-03-18T11:08:42;94935.97;;;26.79;20.86
46638;BME280;32365;46.938;7.390;2023-03-18T11:11:32;94941.72;;;26.37;21.81
46638;BME280;32365;46.938;7.390;2023-03-18T11:14:00;94931.75;;;26.62;21.72
46638;BME280;32365;46.938;7.390;2023-03-18T11:16:30;94943.44;;;24.39;25.10
46638;BME280;32365;46.938;7.390;2023-03-18T11:18:58;94935.47;;;27.41;21.29
46638;BME280;32365;46.938;7.390;2023-03-18T11:21:26;94938.69;;;25.16;22.51
46638;BME280;32365;46.938;7.390;2023-03-18T11:23:58;94936.53;;;21.72;27.66
46638;BME280;32365;46.938;7.390;2023-03-18T11:26:54;94941.03;;;25.17;23.27
46638;BME280;32365;46.938;7.390;2023-03-18T11:29:22;94934.69;;;27.41;20.89
46638;BME280;32365;46.938;7.390;2023-03-18T11:31:52;94932.78;;;27.96;20.38
46638;BME280;32365;46.938;7.390;2023-03-18T11:34:23;94935.03;;;25.86;22.89
46638;BME280;32365;46.938;7.390;2023-03-18T11:36:58;94931.81;;;27.85;19.49
46638;BME280;32365;46.938;7.390;2023-03-18T11:39:28;94932.75;;;27.22;21.17
46638;BME280;32365;46.938;7.390;2023-03-18T11:41:58;94934.97;;;28.30;20.18
46638;BME280;32365;46.938;7.390;2023-03-18T11:44:29;94933.25;;;28.41;20.09
46638;BME280;32365;46.938;7.390;2023-03-18T11:47:01;94933.13;;;27.04;21.24
46638;BME280;32365;46.938;7.390;2023-03-18T11:49:29;94932.69;;;28.09;20.35
46638;BME280;32365;46.938;7.390;2023-03-18T11:52:09;94924.94;;;27.64;20.80
46638;BME280;32365;46.938;7.390;2023-03-18T11:55:09;94917.34;;;27.63;21.06
46638;BME280;32365;46.938;7.390;2023-03-18T11:57:53;94917.63;;;25.85;22.47
46638;BME280;32365;46.938;7.390;2023-03-18T12:00:28;94908.00;;;27.73;20.16
46638;BME280;32365;46.938;7.390;2023-03-18T12:06:18;94915.44;;;27.28;19.62
46638;BME280;32365;46.938;7.390;2023-03-18T12:08:54;94923.16;;;28.27;18.71
46638;BME280;32365;46.938;7.390;2023-03-18T12:11:38;94921.06;;;26.02;20.22
46638;BME280;32365;46.938;7.390;2023-03-18T12:14:13;94911.03;;;21.06;26.70
46638;BME280;32365;46.938;7.390;2023-03-18T12:16:50;94908.34;;;20.57;27.22
46638;BME280;32365;46.938;7.390;2023-03-18T12:19:42;94905.94;;;22.89;24.10
46638;BME280;32365;46.938;7.390;2023-03-18T12:22:22;94909.53;;;22.84;22.86
46638;BME280;32365;46.938;7.390;2023-03-18T12:25:05;94909.09;;;21.47;25.08
46638;BME280;32365;46.938;7.390;2023-03-18T12:27:39;94912.31;;;23.18;23.22
46638;BME280;32365;46.938;7.390;2023-03-18T12:30:22;94905.09;;;22.02;25.01
46638;BME280;32365;46.938;7.390;2023-03-18T12:32:57;94904.81;;;21.02;26.03
46638;BME280;32365;46.938;7.390;2023-03-18T12:35:36;94898.06;;;22.24;24.91
46638;BME280;32365;46.938;7.390;2023-03-18T12:38:21;94898.88;;;20.47;26.61
46638;BME280;32365;46.938;7.390;2023-03-18T12:41:00;94903.69;;;21.61;25.92
46638;BME280;32365;46.938;7.390;2023-03-18T12:43:39;94896.06;;;21.24;24.48
46638;BME280;32365;46.938;7.390;2023-03-18T12:46:18;94896.50;;;20.37;28.37
46638;BME280;32365;46.938;7.390;2023-03-18T12:48:51;94896.28;;;20.96;27.34
46638;BME280;32365;46.938;7.390;2023-03-18T12:51:24;94892.97;;;19.87;27.65
46638;BME280;32365;46.938;7.390;2023-03-18T12:53:54;94894.09;;;19.21;28.24
46638;BME280;32365;46.938;7.390;2023-03-18T12:56:23;94890.78;;;18.88;29.83
46638;BME280;32365;46.938;7.390;2023-03-18T12:58:54;94893.03;;;19.08;30.73
46638;BME280;32365;46.938;7.390;2023-03-18T13:01:30;94886.81;;;19.55;30.07
46638;BME280;32365;46.938;7.390;2023-03-18T13:04:02;94887.56;;;20.38;27.61
46638;BME280;32365;46.938;7.390;2023-03-18T13:06:32;94874.84;;;21.47;27.16
46638;BME280;32365;46.938;7.390;2023-03-18T13:09:06;94877.56;;;22.47;25.59
46638;BME280;32365;46.938;7.390;2023-03-18T13:11:58;94880.16;;;22.56;25.27
46638;BME280;32365;46.938;7.390;2023-03-18T13:14:32;94878.66;;;23.78;23.82
46638;BME280;32365;46.938;7.390;2023-03-18T13:17:09;94877.19;;;23.68;24.37
46638;BME280;32365;46.938;7.390;2023-03-18T13:19:39;94867.38;;;25.48;22.75
46638;BME280;32365;46.938;7.390;2023-03-18T13:22:17;94867.75;;;26.67;20.61
46638;BME280;32365;46.938;7.390;2023-03-18T13:24:59;94865.97;;;26.71;19.18
46638;BME280;32365;46.938;7.390;2023-03-18T13:27:43;94865.97;;;26.87;19.22
46638;BME280;32365;46.938;7.390;2023-03-18T13:30:19;94876.53;;;27.19;18.32
46638;BME280;32365;46.938;7.390;2023-03-18T13:32:58;94874.69;;;27.04;18.62
46638;BME280;32365;46.938;7.390;2023-03-18T13:35:57;94870.31;;;25.59;20.90
46638;BME280;32365;46.938;7.390;2023-03-18T13:38:40;94872.16;;;25.42;20.73
46638;BME280;32365;46.938;7.390;2023-03-18T13:41:34;94868.13;;;26.05;20.49
46638;BME280;32365;46.938;7.390;2023-03-18T13:44:08;94867.19;;;25.69;19.49
46638;BME280;32365;46.938;7.390;2023-03-18T13:46:37;94859.00;;;25.33;21.69
46638;BME280;32365;46.938;7.390;2023-03-18T13:49:16;94857.44;;;25.45;21.03
46638;BME280;32365;46.938;7.390;2023-03-18T13:51:51;94855.72;;;24.50;21.73
46638;BME280;32365;46.938;7.390;2023-03-18T13:54:20;94851.59;;;23.94;21.99
46638;BME280;32365;46.938;7.390;2023-03-18T13:56:49;94852.38;;;25.15;20.83
46638;BME280;32365;46.938;7.390;2023-03-18T13:59:43;94844.72;;;25.38;21.28
46638;BME280;32365;46.938;7.390;2023-03-18T14:02:31;94850.53;;;24.53;21.99
46638;BME280;32365;46.938;7.390;2023-03-18T14:04:59;94844.84;;;24.18;22.67
46638;BME280;32365;46.938;7.390;2023-03-18T14:07:27;94844.63;;;24.69;21.69
46638;BME280;32365;46.938;7.390;2023-03-18T14:10:06;94851.72;;;23.85;23.31
46638;BME280;32365;46.938;7.390;2023-03-18T14:12:38;94848.09;;;23.90;23.59
46638;BME280;32365;46.938;7.390;2023-03-18T14:15:37;94840.72;;;24.54;22.00
46638;BME280;32365;46.938;7.390;2023-03-18T14:18:18;94850.34;;;24.96;21.14
46638;BME280;32365;46.938;7.390;2023-03-18T14:20:51;94846.50;;;25.46;20.91
46638;BME280;32365;46.938;7.390;2023-03-18T14:23:27;94845.41;;;25.35;21.04
46638;BME280;32365;46.938;7.390;2023-03-18T14:26:02;94846.81;;;24.79;21.77
46638;BME280;32365;46.938;7.390;2023-03-18T14:28:40;94847.41;;;25.26;21.91
46638;BME280;32365;46.938;7.390;2023-03-18T14:31:28;94846.22;;;23.57;23.33
46638;BME280;32365;46.938;7.390;2023-03-18T14:34:00;94839.00;;;24.70;22.24
46638;BME280;32365;46.938;7.390;2023-03-18T14:36:38;94836.94;;;22.69;24.85
46638;BME280;32365;46.938;7.390;2023-03-18T14:39:13;94831.63;;;25.29;21.79
46638;BME280;32365;46.938;7.390;2023-03-18T14:41:43;94835.47;;;23.95;24.54
46638;BME280;32365;46.938;7.390;2023-03-18T14:44:18;94837.13;;;24.83;23.14
46638;BME280;32365;46.938;7.390;2023-03-18T14:46:49;94844.72;;;22.18;26.63
46638;BME280;32365;46.938;7.390;2023-03-18T14:49:33;94831.97;;;19.90;28.10
46638;BME280;32365;46.938;7.390;2023-03-18T14:52:05;94827.59;;;21.50;27.28
46638;BME280;32365;46.938;7.390;2023-03-18T14:54:39;94818.34;;;23.17;24.96
46638;BME280;32365;46.938;7.390;2023-03-18T14:57:07;94824.19;;;21.23;28.18
46638;BME280;32365;46.938;7.390;2023-03-18T14:59:34;94826.28;;;23.59;25.77
46638;BME280;32365;46.938;7.390;2023-03-18T15:02:02;94826.28;;;22.96;26.62
46638;BME280;32365;46.938;7.390;2023-03-18T15:04:31;94825.38;;;23.34;26.32
46638;BME280;32365;46.938;7.390;2023-03-18T15:07:00;94827.97;;;23.64;27.15
46638;BME280;32365;46.938;7.390;2023-03-18T15:09:33;94821.84;;;22.40;28.26
46638;BME280;32365;46.938;7.390;2023-03-18T15:12:15;94818.50;;;23.96;24.98
46638;BME280;32365;46.938;7.390;2023-03-18T15:14:41;94820.31;;;23.83;25.20
46638;BME280;32365;46.938;7.390;2023-03-18T15:17:13;94818.50;;;22.22;27.86
46638;BME280;32365;46.938;7.390;2023-03-18T15:19:40;94813.66;;;21.85;28.39
46638;BME280;32365;46.938;7.390;2023-03-18T15:22:07;94821.13;;;21.48;30.36
46638;BME280;32365;46.938;7.390;2023-03-18T15:24:36;94815.09;;;21.65;30.13
46638;BME280;32365;46.938;7.390;2023-03-18T15:27:04;94812.44;;;21.38;29.78
46638;BME280;32365;46.938;7.390;2023-03-18T15:29:34;94816.31;;;21.50;29.92
46638;BME280;32365;46.938;7.390;2023-03-18T15:32:05;94810.44;;;21.09;30.70
46638;BME280;32365;46.938;7.390;2023-03-18T15:34:32;94809.75;;;20.86;31.88
46638;BME280;32365;46.938;7.390;2023-03-18T15:37:01;94816.34;;;20.66;32.21
46638;BME280;32365;46.938;7.390;2023-03-18T15:39:32;94815.06;;;21.12;31.54
46638;BME280;32365;46.938;7.390;2023-03-18T15:42:01;94819.28;;;20.24;33.25
46638;BME280;32365;46.938;7.390;2023-03-18T15:44:31;94817.38;;;19.61;34.61
46638;BME280;32365;46.938;7.390;2023-03-18T15:47:11;94825.75;;;18.76;37.01
46638;BME280;32365;46.938;7.390;2023-03-18T15:49:44;94824.47;;;18.18;38.11
46638;BME280;32365;46.938;7.390;2023-03-18T15:52:15;94819.34;;;17.60;40.35
46638;BME280;32365;46.938;7.390;2023-03-18T15:54:42;94822.41;;;17.48;39.29
46638;BME280;32365;46.938;7.390;2023-03-18T15:57:24;94820.69;;;17.58;39.08
46638;BME280;32365;46.938;7.390;2023-03-18T15:59:53;94824.69;;;17.36;39.65
46638;BME280;32365;46.938;7.390;2023-03-18T16:02:19;94825.97;;;17.19;40.13
46638;BME280;32365;46.938;7.390;2023-03-18T16:04:46;94827.00;;;17.18;40.76
46638;BME280;32365;46.938;7.390;2023-03-18T16:07:15;94827.31;;;17.17;40.84
46638;BME280;32365;46.938;7.390;2023-03-18T16:09:43;94828.84;;;16.99;40.99
46638;BME280;32365;46.938;7.390;2023-03-18T16:12:15;94831.38;;;16.60;42.44
46638;BME280;32365;46.938;7.390;2023-03-18T16:14:45;94838.06;;;16.48;42.62
46638;BME280;32365;46.938;7.390;2023-03-18T16:17:14;94839.19;;;16.12;43.59
46638;BME280;32365;46.938;7.390;2023-03-18T16:19:41;94842.53;;;16.18;43.12
46638;BME280;32365;46.938;7.390;2023-03-18T16:22:10;94839.78;;;16.04;43.29
46638;BME280;32365;46.938;7.390;2023-03-18T16:24:37;94845.47;;;16.11;43.66
46638;BME280;32365;46.938;7.390;2023-03-18T16:27:05;94842.97;;;15.95;44.27
46638;BME280;32365;46.938;7.390;2023-03-18T16:29:40;94849.19;;;16.05;44.42
46638;BME280;32365;46.938;7.390;2023-03-18T16:32:10;94857.22;;;15.74;45.78
46638;BME280;32365;46.938;7.390;2023-03-18T16:34:38;94859.16;;;15.58;45.50
46638;BME280;32365;46.938;7.390;2023-03-18T16:37:05;94863.97;;;15.80;44.19
46638;BME280;32365;46.938;7.390;2023-03-18T16:39:33;94862.50;;;15.63;44.55
46638;BME280;32365;46.938;7.390;2023-03-18T16:42:00;94872.13;;;15.28;46.49
46638;BME280;32365;46.938;7.390;2023-03-18T16:44:28;94877.78;;;15.41;46.01
46638;BME280;32365;46.938;7.390;2023-03-18T16:46:56;94873.66;;;15.34;46.63
46638;BME280;32365;46.938;7.390;2023-03-18T16:49:25;94871.38;;;15.17;47.43
46638;BME280;32365;46.938;7.390;2023-03-18T16:51:52;94877.22;;;14.93;48.65
46638;BME280;32365;46.938;7.390;2023-03-18T16:54:20;94882.50;;;14.83;45.62
46638;BME280;32365;46.938;7.390;2023-03-18T16:56:48;94885.66;;;14.65;47.08
46638;BME280;32365;46.938;7.390;2023-03-18T16:59:15;94885.19;;;14.42;48.35
46638;BME280;32365;46.938;7.390;2023-03-18T17:01:42;94886.50;;;14.34;47.92
46638;BME280;32365;46.938;7.390;2023-03-18T17:04:23;94887.25;;;14.55;47.00
46638;BME280;32365;46.938;7.390;2023-03-18T17:06:52;94891.47;;;14.30;48.22
46638;BME280;32365;46.938;7.390;2023-03-18T17:09:20;94899.25;;;14.36;47.46
46638;BME280;32365;46.938;7.390;2023-03-18T17:11:48;94901.09;;;14.35;47.94
46638;BME280;32365;46.938;7.390;2023-03-18T17:14:26;94909.69;;;14.30;47.44
46638;BME280;32365;46.938;7.390;2023-03-18T17:16:54;94917.25;;;14.37;47.44
46638;BME280;32365;46.938;7.390;2023-03-18T17:19:22;94910.44;;;14.26;47.44
46638;BME280;32365;46.938;7.390;2023-03-18T17:21:50;94908.38;;;14.23;47.35
46638;BME280;32365;46.938;7.390;2023-03-18T17:24:18;94914.09;;;14.14;47.32
46638;BME280;32365;46.938;7.390;2023-03-18T17:26:45;94921.41;;;13.97;48.52
46638;BME280;32365;46.938;7.390;2023-03-18T17:29:21;94916.72;;;13.99;48.80
46638;BME280;32365;46.938;7.390;2023-03-18T17:31:47;94919.03;;;13.85;49.30
46638;BME280;32365;46.938;7.390;2023-03-18T17:34:14;94919.28;;;13.78;49.00
46638;BME280;32365;46.938;7.390;2023-03-18T17:36:42;94914.09;;;13.68;49.38
46638;BME280;32365;46.938;7.390;2023-03-18T17:39:09;94923.13;;;13.34;50.18
46638;BME280;32365;46.938;7.390;2023-03-18T17:41:35;94920.53;;;13.39;49.57
46638;BME280;32365;46.938;7.390;2023-03-18T17:44:02;94923.94;;;13.45;48.69
46638;BME280;32365;46.938;7.390;2023-03-18T17:46:28;94922.56;;;13.37;47.78
46638;BME280;32365;46.938;7.390;2023-03-18T17:48:57;94929.34;;;13.38;47.78
46638;BME280;32365;46.938;7.390;2023-03-18T17:51:24;94925.22;;;13.48;47.11
46638;BME280;32365;46.938;7.390;2023-03-18T17:53:54;94922.84;;;13.36;46.79
46638;BME280;32365;46.938;7.390;2023-03-18T17:56:23;94926.19;;;13.26;47.48
46638;BME280;32365;46.938;7.390;2023-03-18T17:58:52;94931.66;;;13.24;47.40
46638;BME280;32365;46.938;7.390;2023-03-18T18:01:21;94940.72;;;13.17;47.92
46638;BME280;32365;46.938;7.390;2023-03-18T18:03:50;94933.94;;;13.11;47.97
46638;BME280;32365;46.938;7.390;2023-03-18T18:06:20;94950.06;;;13.18;47.99
46638;BME280;32365;46.938;7.390;2023-03-18T18:08:47;94947.94;;;13.04;48.21
46638;BME280;32365;46.938;7.390;2023-03-18T18:11:18;94945.56;;;12.98;48.71
46638;BME280;32365;46.938;7.390;2023-03-18T18:13:46;94944.97;;;12.80;48.52
46638;BME280;32365;46.938;7.390;2023-03-18T18:16:13;94944.44;;;12.78;48.12
46638;BME280;32365;46.938;7.390;2023-03-18T18:18:40;94943.13;;;12.75;49.17
46638;BME280;32365;46.938;7.390;2023-03-18T18:21:10;94949.09;;;12.76;48.68
46638;BME280;32365;46.938;7.390;2023-03-18T18:23:40;94954.19;;;12.60;49.90
46638;BME280;32365;46.938;7.390;2023-03-18T18:26:07;94952.72;;;12.75;48.37
46638;BME280;32365;46.938;7.390;2023-03-18T18:28:37;94951.47;;;12.83;48.15
46638;BME280;32365;46.938;7.390;2023-03-18T18:31:06;94946.50;;;12.76;47.81
46638;BME280;32365;46.938;7.390;2023-03-18T18:33:34;94951.06;;;12.58;48.77
46638;BME280;32365;46.938;7.390;2023-03-18T18:36:01;94951.53;;;12.50;48.75
46638;BME280;32365;46.938;7.390;2023-03-18T18:38:28;94955.50;;;12.63;48.74
46638;BME280;32365;46.938;7.390;2023-03-18T18:40:55;94955.97;;;12.55;47.95
46638;BME280;32365;46.938;7.390;2023-03-18T18:43:23;94957.66;;;12.34;51.15
46638;BME280;32365;46.938;7.390;2023-03-18T18:45:52;94958.16;;;12.30;49.77
46638;BME280;32365;46.938;7.390;2023-03-18T18:48:23;94955.50;;;12.20;51.08
46638;BME280;32365;46.938;7.390;2023-03-18T18:50:51;94956.66;;;12.40;47.08
46638;BME280;32365;46.938;7.390;2023-03-18T18:53:21;94960.44;;;12.27;49.31
46638;BME280;32365;46.938;7.390;2023-03-18T18:55:49;94965.38;;;12.23;49.50
46638;BME280;32365;46.938;7.390;2023-03-18T18:58:18;94971.38;;;12.29;48.42
46638;BME280;32365;46.938;7.390;2023-03-18T19:00:47;94967.72;;;12.25;49.17
46638;BME280;32365;46.938;7.390;2023-03-18T19:03:18;94961.19;;;12.22;48.03
46638;BME280;32365;46.938;7.390;2023-03-18T19:05:46;94959.16;;;12.24;48.17
46638;BME280;32365;46.938;7.390;2023-03-18T19:08:20;94961.75;;;12.24;48.55
46638;BME280;32365;46.938;7.390;2023-03-18T19:10:50;94957.56;;;12.18;49.05
46638;BME280;32365;46.938;7.390;2023-03-18T19:13:16;94962.47;;;12.20;47.85
46638;BME280;32365;46.938;7.390;2023-03-18T19:15:43;94962.00;;;12.23;48.84
46638;BME280;32365;46.938;7.390;2023-03-18T19:18:16;94968.88;;;12.07;49.19
46638;BME280;32365;46.938;7.390;2023-03-18T19:20:44;94962.50;;;11.92;49.68
46638;BME280;32365;46.938;7.390;2023-03-18T19:23:14;94968.97;;;11.90;49.89
46638;BME280;32365;46.938;7.390;2023-03-18T19:25:42;94973.31;;;11.84;50.98
46638;BME280;32365;46.938;7.390;2023-03-18T19:28:15;94971.75;;;11.83;52.01
46638;BME280;32365;46.938;7.390;2023-03-18T19:30:45;94976.41;;;11.81;51.12
46638;BME280;32365;46.938;7.390;2023-03-18T19:33:13;94982.88;;;11.78;50.28
46638;BME280;32365;46.938;7.390;2023-03-18T19:35:42;94984.13;;;11.76;52.00
46638;BME280;32365;46.938;7.390;2023-03-18T19:38:14;94990.09;;;11.76;51.63
46638;BME280;32365;46.938;7.390;2023-03-18T19:40:41;94987.00;;;11.79;51.53
46638;BME280;32365;46.938;7.390;2023-03-18T19:43:14;94986.50;;;11.82;51.09
46638;BME280;32365;46.938;7.390;2023-03-18T19:45:41;94980.03;;;11.85;49.88
46638;BME280;32365;46.938;7.390;2023-03-18T19:48:11;94989.81;;;11.73;49.41
46638;BME280;32365;46.938;7.390;2023-03-18T19:50:41;94993.19;;;11.51;50.79
46638;BME280;32365;46.938;7.390;2023-03-18T19:53:09;94995.84;;;11.34;51.82
46638;BME280;32365;46.938;7.390;2023-03-18T19:55:36;94998.44;;;11.12;53.92
46638;BME280;32365;46.938;7.390;2023-03-18T19:58:03;95006.81;;;11.19;51.23
46638;BME280;32365;46.938;7.390;2023-03-18T20:00:29;95006.03;;;11.18;52.05
46638;BME280;32365;46.938;7.390;2023-03-18T20:02:56;95022.84;;;11.38;50.30
46638;BME280;32365;46.938;7.390;2023-03-18T20:05:23;95019.91;;;11.29;52.80
46638;BME280;32365;46.938;7.390;2023-03-18T20:07:51;95015.88;;;11.16;54.94
46638;BME280;32365;46.938;7.390;2023-03-18T20:10:19;95022.97;;;11.26;51.19
46638;BME280;32365;46.938;7.390;2023-03-18T20:12:46;95021.16;;;11.27;51.67
46638;BME280;32365;46.938;7.390;2023-03-18T20:15:16;95023.13;;;11.36;48.96
46638;BME280;32365;46.938;7.390;2023-03-18T20:17:43;95022.69;;;11.45;47.87
46638;BME280;32365;46.938;7.390;2023-03-18T20:20:12;95027.31;;;11.43;47.71
46638;BME280;32365;46.938;7.390;2023-03-18T20:22:42;95025.09;;;11.29;49.95
46638;BME280;32365;46.938;7.390;2023-03-18T20:25:16;95031.34;;;11.33;49.47
46638;BME280;32365;46.938;7.390;2023-03-18T20:27:43;95028.34;;;11.42;49.70
46638;BME280;32365;46.938;7.390;2023-03-18T20:30:20;95029.38;;;11.40;49.70
46638;BME280;32365;46.938;7.390;2023-03-18T20:32:47;95033.50;;;11.19;51.26
46638;BME280;32365;46.938;7.390;2023-03-18T20:35:14;95035.75;;;11.11;50.83
46638;BME280;32365;46.938;7.390;2023-03-18T20:37:41;95039.69;;;10.96;51.29
46638;BME280;32365;46.938;7.390;2023-03-18T20:40:16;95034.38;;;10.86;54.66
46638;BME280;32365;46.938;7.390;2023-03-18T20:42:44;95040.25;;;10.81;52.49
46638;BME280;32365;46.938;7.390;2023-03-18T20:45:12;95037.75;;;10.69;54.08
46638;BME280;32365;46.938;7.390;2023-03-18T20:47:39;95038.44;;;10.65;52.90
46638;BME280;32365;46.938;7.390;2023-03-18T20:50:06;95033.69;;;10.56;53.48
46638;BME280;32365;46.938;7.390;2023-03-18T20:52:33;95035.78;;;10.59;54.56
46638;BME280;32365;46.938;7.390;2023-03-18T20:55:00;95036.03;;;10.58;55.01
46638;BME280;32365;46.938;7.390;2023-03-18T20:57:28;95043.16;;;10.51;55.00
46638;BME280;32365;46.938;7.390;2023-03-18T20:59:54;95037.13;;;10.45;55.57
46638;BME280;32365;46.938;7.390;2023-03-18T21:02:30;95040.47;;;10.45;53.37